エドモントン の空港の天気 - METARとTAF

エドモントン国際空港 ( CYEG / YEG ) - カナダ アルバータ州Edmonton Capital Region
飛行場実況気象(Metar)
観測時間02/17 16:00 MST (02/17 23:00 UTC)
風向・風速北 3m/s
視程10km以上
天気現象
少しの雲 雲底高度 550m
全天の8割程度の雲 雲底高度 3660m
全天の8割程度の雲 雲底高度 7010m
気温-19℃
湿度71%
気圧1038.3hPa
METARCYEG 172300Z 01005KT 20SM FEW018 BKN120 BKN230 M19/M23 A3044 RMK CF1AC6CI1 CF TR SLP383
過去の天気等 Google飛行場航空写真 Wunderground天気予報

過去48時間のMETAR

飛行場予報(TAF)
発表時間: 2/17 13:38 MST (2/17 20:38 UTC)
予報対象時間: 17日14時 MST ~ 18日11時 MST
風向・風速北北西 3m/s
視程10km以上
全天の4割程度の雲 雲底高度 610m
全天の8割程度の雲 雲底高度 2440m
全天の8割程度の雲 雲底高度 3660m
17日14時 MST ~ 17日23時 MST に一時的に
全天の8割程度の雲 雲底高度 610m
全天の8割程度の雲 雲底高度 2440m
全天の8割程度の雲 雲底高度 3660m
17日23時 MST から
風向・風速不定 2m/s
視程10km以上
全天の4割程度の雲 雲底高度 610m
全天の4割程度の雲 雲底高度 3050m
18日2時 MST から
風向・風速南東 3m/s
視程10km以上
少しの雲 雲底高度 610m
18日7時 MST ~ 18日9時 MST に徐々に
風向・風速南南東 6m/s
TAF CYEG 172038Z 1721/1818 34005KT P6SM SCT020 BKN080 BKN120
TEMPO 1721/1806 BKN020 BKN080 BKN120
FM180600 VRB03KT P6SM SCT020 SCT100
FM180900 14005KT P6SM FEW020
BECMG 1814/1816 16012KT RMK NXT FCST BY 180000Z